createdAt,value
2018-02-05T00:00:29.319Z,47.87
2018-02-05T00:01:29.323Z,47.46
2018-02-05T00:02:29.320Z,47.66
2018-02-05T00:03:29.325Z,47.95
2018-02-05T00:04:29.344Z,47.81
2018-02-05T00:05:29.326Z,47.48
2018-02-05T00:06:29.324Z,47.88
2018-02-05T00:07:29.325Z,47.49
2018-02-05T00:08:29.328Z,47.48
2018-02-05T00:09:29.345Z,47.99
2018-02-05T00:10:29.380Z,47.91
2018-02-05T00:11:29.329Z,47.85
2018-02-05T00:12:29.427Z,47.8
2018-02-05T00:13:29.332Z,47.67
2018-02-05T00:14:29.352Z,47.96
2018-02-05T00:15:29.331Z,47.68
2018-02-05T00:16:29.337Z,48.02
2018-02-05T00:17:29.337Z,47.79
2018-02-05T00:18:29.382Z,48.04
2018-02-05T00:19:29.362Z,47.93
2018-02-05T00:20:29.333Z,47.63
2018-02-05T00:21:29.345Z,47.7
2018-02-05T00:22:29.342Z,47.53
2018-02-05T00:23:29.335Z,47.71
2018-02-05T00:24:29.363Z,47.91
2018-02-05T00:25:29.338Z,48.04
2018-02-05T00:26:29.343Z,48.02
2018-02-05T00:27:29.341Z,47.95
2018-02-05T00:28:29.343Z,47.91
2018-02-05T00:29:29.362Z,47.61
2018-02-05T00:30:29.341Z,48.03
2018-02-05T00:31:29.354Z,47.74
2018-02-05T00:32:29.350Z,47.95
2018-02-05T00:33:29.348Z,47.98
2018-02-05T00:34:29.369Z,47.82
2018-02-05T00:35:29.350Z,47.5
2018-02-05T00:36:29.349Z,47.59
2018-02-05T00:37:29.356Z,48.01
2018-02-05T00:38:29.345Z,48.05
2018-02-05T00:39:29.375Z,47.98
2018-02-05T00:40:29.354Z,48.08
2018-02-05T00:41:29.359Z,47.96
2018-02-05T00:42:29.354Z,48.1
2018-02-05T00:43:29.356Z,48.1
2018-02-05T00:44:29.403Z,48.02
2018-02-05T00:45:29.361Z,47.59
2018-02-05T00:46:29.355Z,47.78
2018-02-05T00:47:29.356Z,47.72
2018-02-05T00:48:29.362Z,47.7
2018-02-05T00:49:29.379Z,48.09
2018-02-05T00:50:29.366Z,48.06
2018-02-05T00:51:29.362Z,47.94
2018-02-05T00:52:29.357Z,47.78
2018-02-05T00:53:29.362Z,47.72
2018-02-05T00:54:29.385Z,48.19
2018-02-05T00:55:29.364Z,48.08
2018-02-05T00:56:29.373Z,48.16
2018-02-05T00:57:29.375Z,47.75
2018-02-05T00:58:29.362Z,47.67
2018-02-05T00:59:29.400Z,48.19
2018-02-05T01:00:29.371Z,48.12
2018-02-05T01:01:29.373Z,48.2
2018-02-05T01:02:29.371Z,47.79
2018-02-05T01:03:29.372Z,47.76
2018-02-05T01:04:29.381Z,47.74
2018-02-05T01:05:29.370Z,48.05
2018-02-05T01:06:29.382Z,48.12
2018-02-05T01:07:29.374Z,48.27
2018-02-05T01:08:29.373Z,48.13
2018-02-05T01:09:29.389Z,48.06
2018-02-05T01:10:29.389Z,47.76
2018-02-05T01:11:29.374Z,48.02
2018-02-05T01:12:29.380Z,48.12
2018-02-05T01:13:29.378Z,48.13
2018-02-05T01:14:29.384Z,48.16
2018-02-05T01:15:29.383Z,47.76
2018-02-05T01:16:29.381Z,48.08
2018-02-05T01:17:29.378Z,48.19
2018-02-05T01:18:29.379Z,47.98
2018-02-05T01:19:29.383Z,47.71
2018-02-05T01:20:29.385Z,48.09
2018-02-05T01:21:29.387Z,47.77
2018-02-05T01:22:29.394Z,48.03
2018-02-05T01:23:29.387Z,48.29
2018-02-05T01:24:29.391Z,47.73
2018-02-05T01:25:29.393Z,47.96
2018-02-05T01:26:29.395Z,47.93
2018-02-05T01:27:29.386Z,48.08
2018-02-05T01:28:29.390Z,47.85
2018-02-05T01:29:29.396Z,48.27
2018-02-05T01:30:29.393Z,47.79
2018-02-05T01:31:29.398Z,47.95
2018-02-05T01:32:29.392Z,48.28
2018-02-05T01:33:29.401Z,47.9
2018-02-05T01:34:29.396Z,48.07
2018-02-05T01:35:29.403Z,48.32
2018-02-05T01:36:29.399Z,48.24
2018-02-05T01:37:29.397Z,48.65
2018-02-05T01:38:29.398Z,48.29
2018-02-05T01:39:29.424Z,48.33
2018-02-05T01:40:29.402Z,48.47
2018-02-05T01:41:29.428Z,48.33
2018-02-05T01:42:29.399Z,48.53
2018-02-05T01:43:29.401Z,48.79
2018-02-05T01:44:29.426Z,48.77
2018-02-05T01:45:29.409Z,48.86
2018-02-05T01:46:29.404Z,48.52
2018-02-05T01:47:29.404Z,48.52
2018-02-05T01:48:29.410Z,48.91
2018-02-05T01:49:29.427Z,48.78
2018-02-05T01:50:29.412Z,48.87
2018-02-05T01:51:29.408Z,48.94
2018-02-05T01:52:29.408Z,48.62
2018-02-05T01:53:29.418Z,48.7
2018-02-05T01:54:29.432Z,48.89
2018-02-05T01:55:29.412Z,48.92
2018-02-05T01:56:29.415Z,48.93
2018-02-05T01:57:29.415Z,48.55
2018-02-05T01:58:29.415Z,48.88
2018-02-05T01:59:29.440Z,48.96
2018-02-05T02:00:29.419Z,49.07
2018-02-05T02:01:29.414Z,49
2018-02-05T02:02:29.424Z,48.58
2018-02-05T02:03:29.419Z,49.08
2018-02-05T02:04:29.441Z,48.69
2018-02-05T02:05:29.426Z,48.63
2018-02-05T02:06:29.421Z,48.87
2018-02-05T02:07:29.420Z,48.56
2018-02-05T02:08:29.422Z,48.77
2018-02-05T02:09:29.450Z,48.93
2018-02-05T02:10:29.424Z,48.89
2018-02-05T02:11:29.429Z,48.96
2018-02-05T02:12:29.425Z,49.12
2018-02-05T02:13:29.428Z,48.78
2018-02-05T02:14:29.452Z,48.57
2018-02-05T02:15:29.434Z,48.7
2018-02-05T02:16:29.428Z,49.03
2018-02-05T02:17:29.438Z,49
2018-02-05T02:18:29.431Z,48.92
2018-02-05T02:19:29.493Z,48.53
2018-02-05T02:20:29.432Z,48.63
2018-02-05T02:21:29.432Z,48.93
2018-02-05T02:22:29.437Z,48.57
2018-02-05T02:23:29.436Z,48.72
2018-02-05T02:24:29.458Z,49.01
2018-02-05T02:25:29.436Z,48.92
2018-02-05T02:26:29.446Z,48.65
2018-02-05T02:27:29.445Z,48.66
2018-02-05T02:28:29.444Z,48.47
2018-02-05T02:29:29.458Z,49.01
2018-02-05T02:30:29.439Z,49.02
2018-02-05T02:31:29.442Z,48.94
2018-02-05T02:32:29.444Z,48.75
2018-02-05T02:33:29.442Z,48.61
2018-02-05T02:34:29.466Z,48.53
2018-02-05T02:35:29.447Z,48.71
2018-02-05T02:36:29.446Z,48.66
2018-02-05T02:37:29.452Z,48.78
2018-02-05T02:38:29.443Z,48.67
2018-02-05T02:39:29.472Z,49.06
2018-02-05T02:40:29.453Z,48.49
2018-02-05T02:41:29.450Z,49.09
2018-02-05T02:42:29.459Z,49.05
2018-02-05T02:43:29.450Z,48.98
2018-02-05T02:44:29.472Z,48.87
2018-02-05T02:45:29.452Z,48.78
2018-02-05T02:46:29.453Z,49.12
2018-02-05T02:47:29.455Z,49
2018-02-05T02:48:29.452Z,49.02
2018-02-05T02:49:29.478Z,49.07
2018-02-05T02:50:29.459Z,49.16
2018-02-05T02:51:29.456Z,48.67
2018-02-05T02:52:29.459Z,48.76
2018-02-05T02:53:29.460Z,49.1
2018-02-05T02:54:29.461Z,49.23
2018-02-05T02:55:29.479Z,49.18
2018-02-05T02:56:29.464Z,49.2
2018-02-05T02:57:29.467Z,49
2018-02-05T02:58:29.460Z,48.76
2018-02-05T02:59:29.473Z,48.93
2018-02-05T03:00:29.492Z,48.93
2018-02-05T03:01:29.467Z,48.88
2018-02-05T03:02:29.466Z,49.21
2018-02-05T03:03:29.467Z,48.88
2018-02-05T03:04:29.471Z,49.25
2018-02-05T03:05:29.493Z,49.28
2018-02-05T03:06:29.468Z,49.25
2018-02-05T03:07:29.474Z,49.41
2018-02-05T03:08:29.473Z,48.91
2018-02-05T03:09:29.473Z,49.44
2018-02-05T03:10:29.504Z,49.36
2018-02-05T03:11:29.473Z,49.3
2018-02-05T03:12:29.477Z,49.59
2018-02-05T03:13:29.473Z,49.09
2018-02-05T03:14:29.485Z,49.51
2018-02-05T03:15:29.497Z,49.1
2018-02-05T03:16:29.475Z,49.59
2018-02-05T03:17:29.479Z,49.88
2018-02-05T03:18:29.483Z,49.12
2018-02-05T03:19:29.478Z,49.09
2018-02-05T03:20:29.503Z,49.56
2018-02-05T03:21:29.483Z,49.18
2018-02-05T03:22:29.487Z,49.48
2018-02-05T03:23:29.483Z,49.63
2018-02-05T03:24:29.486Z,49.6
2018-02-05T03:25:29.512Z,49.17
2018-02-05T03:26:29.486Z,49.56
2018-02-05T03:27:29.487Z,49.27
2018-02-05T03:28:29.494Z,49.4
2018-02-05T03:29:29.492Z,49.51
2018-02-05T03:30:29.509Z,49.24
2018-02-05T03:31:29.496Z,49.13
2018-02-05T03:32:29.489Z,49.53
2018-02-05T03:33:29.495Z,49.13
2018-02-05T03:34:29.492Z,49.02
2018-02-05T03:35:29.516Z,49.48
2018-02-05T03:36:29.490Z,49.53
2018-02-05T03:37:29.496Z,49.34
2018-02-05T03:38:29.499Z,49.48
2018-02-05T03:39:29.502Z,49.36
2018-02-05T03:40:29.527Z,49.44
2018-02-05T03:41:29.500Z,49.2
2018-02-05T03:42:29.500Z,49.37
2018-02-05T03:43:29.504Z,49.43
2018-02-05T03:44:29.500Z,49.02
2018-02-05T03:45:29.525Z,49.22
2018-02-05T03:46:29.501Z,49.3
2018-02-05T03:47:29.500Z,49.37
2018-02-05T03:48:29.505Z,49.33
2018-02-05T03:49:29.504Z,48.96
2018-02-05T03:50:29.577Z,49.49
2018-02-05T03:51:29.510Z,49.21
2018-02-05T03:52:29.515Z,48.89
2018-02-05T03:53:29.504Z,49.06
2018-02-05T03:54:29.544Z,49.22
2018-02-05T03:55:29.532Z,49.29
2018-02-05T03:56:29.512Z,49.54
2018-02-05T03:57:29.515Z,49.13
2018-02-05T03:58:29.512Z,49.37
2018-02-05T03:59:29.513Z,49.42
2018-02-05T04:00:29.535Z,49.27
2018-02-05T04:01:29.512Z,49.32
2018-02-05T04:02:29.512Z,49.1
2018-02-05T04:03:29.516Z,49.49
2018-02-05T04:04:29.513Z,48.94
2018-02-05T04:05:29.542Z,48.85
2018-02-05T04:06:29.515Z,49.54
2018-02-05T04:07:29.518Z,49.02
2018-02-05T04:08:29.523Z,49.07
2018-02-05T04:09:29.527Z,49.43
2018-02-05T04:10:29.546Z,49.02
2018-02-05T04:11:29.523Z,49.22
2018-02-05T04:12:29.585Z,49.36
2018-02-05T04:13:29.522Z,49.56
2018-02-05T04:14:29.527Z,49.7
2018-02-05T04:15:29.562Z,49.62
2018-02-05T04:16:29.522Z,49.42
2018-02-05T04:17:29.528Z,49.02
2018-02-05T04:18:29.529Z,49.21
2018-02-05T04:19:29.527Z,49.5
2018-02-05T04:20:29.549Z,49.08
2018-02-05T04:21:29.532Z,49.37
2018-02-05T04:22:29.526Z,49.1
2018-02-05T04:23:29.530Z,49.26
2018-02-05T04:24:29.528Z,49.24
2018-02-05T04:25:29.565Z,48.77
2018-02-05T04:26:29.532Z,49.11
2018-02-05T04:27:29.542Z,48.85
2018-02-05T04:28:29.541Z,48.7
2018-02-05T04:29:29.540Z,48.53
2018-02-05T04:30:29.561Z,48.91
2018-02-05T04:31:29.540Z,48.5
2018-02-05T04:32:29.536Z,48.58
2018-02-05T04:33:29.535Z,48.87
2018-02-05T04:34:29.550Z,48.52
2018-02-05T04:35:29.565Z,48.84
2018-02-05T04:36:29.558Z,48.31
2018-02-05T04:37:29.541Z,48.51
2018-02-05T04:38:29.539Z,48.61
2018-02-05T04:39:29.545Z,48.68
2018-02-05T04:40:29.550Z,48.8
2018-02-05T04:41:29.552Z,48.71
2018-02-05T04:42:29.548Z,48.74
2018-02-05T04:43:29.558Z,48.16
2018-02-05T04:44:29.548Z,48.17
2018-02-05T04:45:29.552Z,48.35
2018-02-05T04:46:29.551Z,48.23
2018-02-05T04:47:29.554Z,48.24
2018-02-05T04:48:29.551Z,48.63
2018-02-05T04:49:29.554Z,48.2
2018-02-05T04:50:29.558Z,48.53
2018-02-05T04:51:29.555Z,48.15
2018-02-05T04:52:29.559Z,48.09
2018-02-05T04:53:29.557Z,48.6
2018-02-05T04:54:29.558Z,48.72
2018-02-05T04:55:29.561Z,49.11
2018-02-05T04:56:29.559Z,48.83
2018-02-05T04:57:29.559Z,49.11
2018-02-05T04:58:29.568Z,49.09
2018-02-05T04:59:29.564Z,49.64
2018-02-05T05:00:29.583Z,49.83
2018-02-05T05:01:29.559Z,49.69
2018-02-05T05:02:29.567Z,49.84
2018-02-05T05:03:29.566Z,49.87
2018-02-05T05:04:29.572Z,49.7
2018-02-05T05:05:29.592Z,49.73
2018-02-05T05:06:29.568Z,50.43
2018-02-05T05:07:29.567Z,50.48
2018-02-05T05:08:29.566Z,50.44
2018-02-05T05:09:29.565Z,50.34
2018-02-05T05:10:29.594Z,49.97
2018-02-05T05:11:29.572Z,50.14
2018-02-05T05:12:29.573Z,49.87
2018-02-05T05:13:29.572Z,49.92
2018-02-05T05:14:29.570Z,49.83
2018-02-05T05:15:29.600Z,50.43
2018-02-05T05:16:29.573Z,50.43
2018-02-05T05:17:29.571Z,50.36
2018-02-05T05:18:29.570Z,49.87
2018-02-05T05:19:29.574Z,50.17
2018-02-05T05:20:29.598Z,50.23
2018-02-05T05:21:29.575Z,50.4
2018-02-05T05:22:29.580Z,50.36
2018-02-05T05:23:29.582Z,50.48
2018-02-05T05:24:29.626Z,50.33
2018-02-05T05:25:29.611Z,50.41
2018-02-05T05:26:29.579Z,50.13
2018-02-05T05:27:29.579Z,50.25
2018-02-05T05:28:29.588Z,49.98
2018-02-05T05:29:29.591Z,50.34
2018-02-05T05:30:29.612Z,50.25
2018-02-05T05:31:29.592Z,50.36
2018-02-05T05:32:29.589Z,50.06
2018-02-05T05:33:29.587Z,50.11
2018-02-05T05:34:29.600Z,50.36
2018-02-05T05:35:29.615Z,49.77
2018-02-05T05:36:29.589Z,49.92
2018-02-05T05:37:29.588Z,49.86
2018-02-05T05:38:29.599Z,49.98
2018-02-05T05:39:29.595Z,50.2
2018-02-05T05:40:29.618Z,50.2
2018-02-05T05:41:29.596Z,50.3
2018-02-05T05:42:29.598Z,50.33
2018-02-05T05:43:29.606Z,49.87
2018-02-05T05:44:29.622Z,50.1
2018-02-05T05:45:29.620Z,50.23
2018-02-05T05:46:29.601Z,49.93
2018-02-05T05:47:29.600Z,50.37
2018-02-05T05:48:29.603Z,49.9
2018-02-05T05:49:29.603Z,50.26
2018-02-05T05:50:29.611Z,50.14
2018-02-05T05:51:29.600Z,50.06
2018-02-05T05:52:29.606Z,49.86
2018-02-05T05:53:29.609Z,50.32
2018-02-05T05:54:29.604Z,49.87
2018-02-05T05:55:29.604Z,50.26
2018-02-05T05:56:29.615Z,50.23
2018-02-05T05:57:29.609Z,49.86
2018-02-05T05:58:29.610Z,49.94
2018-02-05T05:59:29.605Z,49.73
2018-02-05T06:00:29.608Z,49.68
2018-02-05T06:01:29.636Z,49.66
2018-02-05T06:02:29.609Z,50.21
2018-02-05T06:03:29.612Z,49.67
2018-02-05T06:04:29.611Z,50.11
2018-02-05T06:05:29.610Z,49.64
2018-02-05T06:06:29.638Z,50.05
2018-02-05T06:07:29.613Z,49.66
2018-02-05T06:08:29.618Z,50.02
2018-02-05T06:09:29.621Z,50.08
2018-02-05T06:10:29.618Z,49.58
2018-02-05T06:11:29.644Z,49.61
2018-02-05T06:12:29.615Z,49.73
2018-02-05T06:13:29.621Z,49.85
2018-02-05T06:14:29.618Z,49.38
2018-02-05T06:15:29.626Z,49.55
2018-02-05T06:16:29.659Z,49.52
2018-02-05T06:17:29.628Z,49.88
2018-02-05T06:18:29.621Z,49.99
2018-02-05T06:19:29.622Z,49.78
2018-02-05T06:20:29.628Z,49.62
2018-02-05T06:21:29.644Z,49.71
2018-02-05T06:22:29.625Z,49.96
2018-02-05T06:23:29.632Z,49.5
2018-02-05T06:24:29.632Z,49.88
2018-02-05T06:25:29.755Z,49.54
2018-02-05T06:26:29.654Z,49.51
2018-02-05T06:27:29.633Z,49.87
2018-02-05T06:28:29.634Z,49.4
2018-02-05T06:29:29.631Z,49.47
2018-02-05T06:30:29.634Z,49.9
2018-02-05T06:31:29.656Z,49.79
2018-02-05T06:32:29.702Z,49.61
2018-02-05T06:33:29.635Z,49.8
2018-02-05T06:34:29.640Z,49.74
2018-02-05T06:35:29.639Z,49.48
2018-02-05T06:36:29.662Z,49.74
2018-02-05T06:37:29.638Z,49.72
2018-02-05T06:38:29.649Z,49.39
2018-02-05T06:39:29.652Z,49.43
2018-02-05T06:40:29.644Z,49.56
2018-02-05T06:41:29.671Z,49.71
2018-02-05T06:42:29.646Z,49.32
2018-02-05T06:43:29.649Z,49.3
2018-02-05T06:44:29.642Z,49.34
2018-02-05T06:45:29.650Z,49.74
2018-02-05T06:46:29.669Z,49.35
2018-02-05T06:47:29.650Z,49.72
2018-02-05T06:48:29.652Z,49.38
2018-02-05T06:49:29.657Z,49.43
2018-02-05T06:50:29.652Z,49.65
2018-02-05T06:51:29.672Z,49.33
2018-02-05T06:52:29.654Z,49.69
2018-02-05T06:53:29.651Z,49.41
2018-02-05T06:54:29.651Z,49.7
2018-02-05T06:55:29.662Z,49.63
2018-02-05T06:56:29.680Z,49.63
2018-02-05T06:58:39.825Z,49.26
2018-02-05T06:59:39.824Z,49.76
2018-02-05T07:00:39.820Z,49.29
2018-02-05T07:01:39.841Z,49.61
2018-02-05T07:02:39.826Z,49.64
2018-02-05T07:03:39.839Z,49.27
2018-02-05T07:04:39.833Z,49.31
2018-02-05T07:05:39.832Z,49.2
2018-02-05T07:06:39.846Z,49.31
2018-02-05T07:07:39.827Z,49.42
2018-02-05T07:08:39.828Z,49.37
2018-02-05T07:09:39.825Z,49.1
2018-02-05T07:10:39.829Z,49.61
2018-02-05T07:11:39.850Z,49.17
2018-02-05T07:12:39.848Z,49.56
2018-02-05T07:13:39.882Z,49.67
2018-02-05T07:14:39.831Z,49.24
2018-02-05T07:15:39.833Z,49.14
2018-02-05T07:16:39.858Z,49.26
2018-02-05T07:17:39.836Z,49.19
2018-02-05T07:18:39.841Z,49.14
2018-02-05T07:19:39.839Z,49.7
2018-02-05T07:20:39.843Z,49.66
2018-02-05T07:21:39.882Z,49.1
2018-02-05T07:22:39.842Z,49.13
2018-02-05T07:23:39.837Z,49.58
2018-02-05T07:24:39.841Z,49.3
2018-02-05T07:25:39.840Z,49.59
2018-02-05T07:26:39.844Z,49.51
2018-02-05T07:27:39.867Z,49.18
2018-02-05T07:28:39.845Z,49.25
2018-02-05T07:29:39.841Z,49.38
2018-02-05T07:30:39.846Z,49.13
2018-02-05T07:31:39.846Z,49.17
2018-02-05T07:32:39.869Z,49.53
2018-02-05T07:33:39.856Z,49.32
2018-02-05T07:34:39.847Z,49.5
2018-02-05T07:35:39.847Z,49.55
2018-02-05T07:36:39.852Z,49.48
2018-02-05T07:37:39.876Z,49.45
2018-02-05T07:38:39.850Z,49.23
2018-02-05T07:39:39.852Z,49.17
2018-02-05T07:40:39.851Z,49.22
2018-02-05T07:41:39.857Z,49.23
2018-02-05T07:42:39.880Z,49.59
2018-02-05T07:43:39.859Z,49.5
2018-02-05T07:44:39.938Z,49.3
2018-02-05T07:45:39.857Z,48.95
2018-02-05T07:46:39.857Z,49.26
2018-02-05T07:47:39.882Z,49.45
2018-02-05T07:48:39.856Z,49.55
2018-02-05T07:49:39.862Z,49.16
2018-02-05T07:50:39.864Z,49.54
2018-02-05T07:51:39.865Z,49.25
2018-02-05T07:52:39.887Z,49.23
2018-02-05T07:53:39.864Z,49.1
2018-02-05T07:54:39.869Z,48.98
2018-02-05T07:55:39.866Z,49.3
2018-02-05T07:56:39.868Z,49.43
2018-02-05T07:57:39.886Z,48.96
2018-02-05T07:58:39.868Z,48.98
2018-02-05T07:59:39.870Z,48.81
2018-02-05T08:00:39.869Z,49.29
2018-02-05T08:01:39.871Z,49.05
2018-02-05T08:02:39.892Z,49.08
2018-02-05T08:03:39.873Z,48.96
2018-02-05T08:04:39.873Z,49.52
2018-02-05T08:05:39.874Z,49.09
2018-02-05T08:06:39.874Z,49.01
2018-02-05T08:07:39.895Z,49.07
2018-02-05T08:08:39.880Z,49.1
2018-02-05T08:09:39.879Z,49.24
2018-02-05T08:10:39.878Z,49.39
2018-02-05T08:11:39.880Z,49.21
2018-02-05T08:12:39.901Z,48.96
2018-02-05T08:13:39.879Z,49.35
2018-02-05T08:14:39.949Z,49.09
2018-02-05T08:15:39.880Z,49.08
2018-02-05T08:16:39.882Z,49.11
2018-02-05T08:17:39.901Z,49.29
2018-02-05T08:18:39.882Z,49.06
2018-02-05T08:19:39.885Z,48.94
2018-02-05T08:20:39.885Z,49.39
2018-02-05T08:21:39.884Z,49.37
2018-02-05T08:22:39.911Z,48.95
2018-02-05T08:23:39.892Z,48.98
2018-02-05T08:24:39.888Z,48.93
2018-02-05T08:25:39.886Z,49.35
2018-02-05T08:26:39.896Z,49.42
2018-02-05T08:27:39.913Z,49.49
2018-02-05T08:28:39.891Z,49.35
2018-02-05T08:29:39.897Z,49.04
2018-02-05T08:30:39.899Z,48.95
2018-02-05T08:31:39.895Z,49.03
2018-02-05T08:32:39.919Z,49.3
2018-02-05T08:33:39.900Z,49.63
2018-02-05T08:34:39.895Z,49.32
2018-02-05T08:35:39.901Z,49.04
2018-02-05T08:36:39.899Z,49.23
2018-02-05T08:37:39.924Z,49.31
2018-02-05T08:38:39.899Z,49
2018-02-05T08:39:39.900Z,49.12
2018-02-05T08:40:39.911Z,49.02
2018-02-05T08:41:39.906Z,48.94
2018-02-05T08:42:39.927Z,49.06
2018-02-05T08:43:39.906Z,49.06
2018-02-05T08:44:39.904Z,49.17
2018-02-05T08:45:39.907Z,48.96
2018-02-05T08:46:39.910Z,49
2018-02-05T08:47:39.935Z,49.25
2018-02-05T08:48:39.914Z,49.44
2018-02-05T08:49:39.911Z,49.13
2018-02-05T08:50:39.913Z,48.9
2018-02-05T08:51:39.908Z,48.81
2018-02-05T08:52:39.911Z,49.4
2018-02-05T08:53:39.914Z,48.93
2018-02-05T08:54:39.914Z,48.96
2018-02-05T08:55:39.915Z,49.23
2018-02-05T08:56:39.918Z,49.35
2018-02-05T08:57:39.925Z,49
2018-02-05T08:58:39.920Z,49.41
2018-02-05T08:59:39.916Z,49.36
2018-02-05T09:00:39.916Z,49.02
2018-02-05T09:01:39.919Z,48.99
2018-02-05T09:02:39.925Z,49.44
2018-02-05T09:03:39.919Z,49.26
2018-02-05T09:04:39.919Z,49.41
2018-02-05T09:05:39.926Z,49.04
2018-02-05T09:06:39.924Z,48.99
2018-02-05T09:07:39.927Z,48.86
2018-02-05T09:08:39.923Z,48.95
2018-02-05T09:09:39.923Z,49.17
2018-02-05T09:10:39.927Z,49.31
2018-02-05T09:11:39.928Z,49.34
2018-02-05T09:12:39.935Z,48.93
2018-02-05T09:13:39.930Z,49.01
2018-02-05T09:14:39.930Z,48.88
2018-02-05T09:15:39.931Z,49.11
2018-02-05T09:16:39.924Z,49.05
2018-02-05T09:17:39.937Z,48.86
2018-02-05T09:18:39.929Z,48.97
2018-02-05T09:19:40.054Z,49.43
2018-02-05T09:20:39.941Z,48.91
2018-02-05T09:21:39.934Z,48.94
2018-02-05T09:22:39.965Z,48.75
2018-02-05T09:23:39.936Z,48.63
2018-02-05T09:24:39.935Z,48.75
2018-02-05T09:25:39.939Z,48.98
2018-02-05T09:26:39.943Z,49.1
2018-02-05T09:27:39.961Z,48.61
2018-02-05T09:28:39.984Z,48.87
2018-02-05T09:29:39.940Z,48.73
2018-02-05T09:30:39.944Z,49.01
2018-02-05T09:31:39.944Z,48.79
2018-02-05T09:32:39.967Z,48.75
2018-02-05T09:33:39.941Z,48.77
2018-02-05T09:34:39.945Z,48.97
2018-02-05T09:35:39.942Z,49.12
2018-02-05T09:36:39.948Z,49.02
2018-02-05T09:37:39.971Z,48.7
2018-02-05T09:38:39.945Z,49.12
2018-02-05T09:39:39.949Z,49.09
2018-02-05T09:40:39.952Z,48.68
2018-02-05T09:41:39.946Z,48.55
2018-02-05T09:42:39.976Z,48.74
2018-02-05T09:43:39.947Z,48.97
2018-02-05T09:44:39.953Z,49.03
2018-02-05T09:45:39.955Z,48.65
2018-02-05T09:46:39.973Z,48.65
2018-02-05T09:47:39.982Z,49.11
2018-02-05T09:48:39.960Z,49.1
2018-02-05T09:49:39.991Z,48.76
2018-02-05T09:50:39.959Z,48.86
2018-02-05T09:51:39.959Z,48.7
2018-02-05T09:52:39.987Z,48.7
2018-02-05T09:53:39.956Z,49.1
2018-02-05T09:54:39.962Z,49.28
2018-02-05T09:55:39.971Z,49.06
2018-02-05T09:56:39.965Z,49.17
2018-02-05T09:57:39.982Z,49.07
2018-02-05T09:58:39.968Z,49.01
2018-02-05T09:59:39.969Z,48.89
2018-02-05T10:00:39.967Z,48.73
2018-02-05T10:01:39.970Z,49.16
2018-02-05T10:02:39.988Z,48.73
2018-02-05T10:03:39.970Z,48.75
2018-02-05T10:04:39.969Z,48.95
2018-02-05T10:05:39.972Z,48.64
2018-02-05T10:06:39.969Z,49.19
2018-02-05T10:07:39.995Z,48.63
2018-02-05T10:08:39.977Z,48.86
2018-02-05T10:09:39.973Z,48.62
2018-02-05T10:10:39.968Z,49.09
2018-02-05T10:11:39.970Z,49.16
2018-02-05T10:12:40.002Z,49.21
2018-02-05T10:13:39.976Z,48.77
2018-02-05T10:14:39.975Z,48.7
2018-02-05T10:15:39.983Z,48.8
2018-02-05T10:16:39.984Z,48.86
2018-02-05T10:17:40.020Z,48.72
2018-02-05T10:18:39.983Z,48.83
2018-02-05T10:19:39.979Z,49.14
2018-02-05T10:20:39.993Z,49.14
2018-02-05T10:21:39.982Z,49.13
2018-02-05T10:22:39.981Z,48.93
2018-02-05T10:23:40.012Z,48.7
2018-02-05T10:24:39.985Z,48.76
2018-02-05T10:25:39.990Z,48.76
2018-02-05T10:26:39.987Z,48.69
2018-02-05T10:27:39.994Z,48.95
2018-02-05T10:28:40.011Z,48.99
2018-02-05T10:29:39.987Z,48.86
2018-02-05T10:30:39.992Z,49.25
2018-02-05T10:31:39.989Z,49.19
2018-02-05T10:32:39.991Z,48.9
2018-02-05T10:33:40.020Z,48.75
2018-02-05T10:34:39.994Z,48.98
2018-02-05T10:35:39.994Z,48.64
2018-02-05T10:36:39.995Z,49.08
2018-02-05T10:37:40.001Z,49.15
2018-02-05T10:38:40.023Z,49.01
2018-02-05T10:39:39.995Z,48.77
2018-02-05T10:40:39.998Z,48.54
2018-02-05T10:41:39.999Z,48.77
2018-02-05T10:42:40.002Z,49.08
2018-02-05T10:43:40.019Z,49.02
2018-02-05T10:44:39.998Z,49.16
2018-02-05T10:45:39.997Z,49.08
2018-02-05T10:46:40.000Z,49.03
2018-02-05T10:47:40.001Z,49.13
2018-02-05T10:48:40.028Z,49.1
2018-02-05T10:49:40.005Z,48.73
2018-02-05T10:50:40.032Z,49.12
2018-02-05T10:51:40.006Z,48.66
2018-02-05T10:52:40.009Z,48.78
2018-02-05T10:53:40.031Z,48.78
2018-02-05T10:54:40.015Z,48.82
2018-02-05T10:55:40.063Z,49.1
2018-02-05T10:56:40.013Z,49.29
2018-02-05T10:57:40.015Z,49.19
2018-02-05T10:58:40.038Z,48.81
2018-02-05T10:59:40.015Z,48.89
2018-02-05T11:01:50.192Z,48.93
2018-02-05T11:02:50.177Z,49.04
2018-02-05T11:03:50.200Z,48.95
2018-02-05T11:04:50.173Z,48.75
2018-02-05T11:05:50.177Z,49.1
2018-02-05T11:06:50.207Z,48.69
2018-02-05T11:07:50.177Z,48.66
2018-02-05T11:08:50.209Z,48.69
2018-02-05T11:09:50.182Z,49.14
2018-02-05T11:10:50.183Z,48.74
2018-02-05T11:11:50.181Z,48.73
2018-02-05T11:12:50.182Z,49.08
2018-02-05T11:13:50.206Z,48.76
2018-02-05T11:14:50.183Z,48.7
2018-02-05T11:15:50.186Z,49.01
2018-02-05T11:16:50.195Z,49.11
2018-02-05T11:17:50.185Z,49.13
2018-02-05T11:18:50.212Z,48.63
2018-02-05T11:19:50.193Z,49.09
2018-02-05T11:20:50.195Z,49.17
2018-02-05T11:21:50.190Z,49.18
2018-02-05T11:22:50.196Z,48.89
2018-02-05T11:23:50.213Z,49.18
2018-02-05T11:24:50.195Z,49.06
2018-02-05T11:25:50.199Z,48.77
2018-02-05T11:26:50.195Z,49.06
2018-02-05T11:27:50.199Z,48.7
2018-02-05T11:28:50.220Z,48.81
2018-02-05T11:29:50.203Z,48.79
2018-02-05T11:30:50.207Z,48.57
2018-02-05T11:31:50.201Z,48.74
2018-02-05T11:32:50.198Z,48.73
2018-02-05T11:33:50.228Z,48.66
2018-02-05T11:34:50.249Z,48.68
2018-02-05T11:35:50.203Z,48.77
2018-02-05T11:36:50.210Z,48.72
2018-02-05T11:37:50.204Z,49.07
2018-02-05T11:38:50.228Z,48.76
2018-02-05T11:39:50.208Z,48.69
2018-02-05T11:40:50.202Z,48.78
2018-02-05T11:41:50.206Z,49
2018-02-05T11:42:50.210Z,48.87
2018-02-05T11:43:50.231Z,49.06
2018-02-05T11:44:50.217Z,49.17
2018-02-05T11:45:50.215Z,49.11
2018-02-05T11:46:50.212Z,48.73
2018-02-05T11:47:50.216Z,48.7
2018-02-05T11:48:50.231Z,49.06
2018-02-05T11:49:50.215Z,49.1
2018-02-05T11:50:50.216Z,48.51
2018-02-05T11:51:50.237Z,48.75
2018-02-05T11:52:50.213Z,49.13
2018-02-05T11:53:50.240Z,49.06
2018-02-05T11:54:50.221Z,48.65
2018-02-05T11:55:50.220Z,48.71
2018-02-05T11:56:50.221Z,48.99
2018-02-05T11:57:50.224Z,49.02
2018-02-05T11:58:50.243Z,49.06
2018-02-05T11:59:50.222Z,49.15
2018-02-05T12:00:50.216Z,49.12
2018-02-05T12:01:50.219Z,49.16
2018-02-05T12:02:50.265Z,49.12
2018-02-05T12:03:50.249Z,48.72
2018-02-05T12:04:50.226Z,49.18
2018-02-05T12:05:50.225Z,49.06
2018-02-05T12:06:50.229Z,48.73
2018-02-05T12:07:50.227Z,49.13
2018-02-05T12:08:50.254Z,49.06
2018-02-05T12:09:50.309Z,49.03
2018-02-05T12:10:50.236Z,49.05
2018-02-05T12:11:50.228Z,49.1
2018-02-05T12:12:50.230Z,48.64
2018-02-05T12:13:50.259Z,49.1
2018-02-05T12:14:50.238Z,48.62
2018-02-05T12:15:50.238Z,49.04
2018-02-05T12:16:50.233Z,49.11
2018-02-05T12:17:50.236Z,48.67
2018-02-05T12:18:50.259Z,49.16
2018-02-05T12:19:50.245Z,48.67
2018-02-05T12:20:50.239Z,48.69
2018-02-05T12:21:50.234Z,49.04
2018-02-05T12:22:50.296Z,48.89
2018-02-05T12:23:50.241Z,49.1
2018-02-05T12:24:50.240Z,48.77
2018-02-05T12:25:50.243Z,49.08
2018-02-05T12:26:50.249Z,49.08
2018-02-05T12:27:50.243Z,48.79
2018-02-05T12:28:50.249Z,48.86
2018-02-05T12:29:50.245Z,48.7
2018-02-05T12:30:50.245Z,48.78
2018-02-05T12:31:50.243Z,49.09
2018-02-05T12:32:50.247Z,49.03
2018-02-05T12:33:50.254Z,48.68
2018-02-05T12:34:50.251Z,48.63
2018-02-05T12:35:50.250Z,48.75
2018-02-05T12:36:50.251Z,48.55
2018-02-05T12:37:50.249Z,48.92
2018-02-05T12:38:50.261Z,48.65
2018-02-05T12:39:50.259Z,49.05
2018-02-05T12:40:50.255Z,48.55
2018-02-05T12:41:50.256Z,48.65
2018-02-05T12:42:50.258Z,49.01
2018-02-05T12:43:50.261Z,48.65
2018-02-05T12:44:50.261Z,49.08
2018-02-05T12:45:50.264Z,49.14
2018-02-05T12:46:50.261Z,49.11
2018-02-05T12:47:50.263Z,48.67
2018-02-05T12:48:50.267Z,49.08
2018-02-05T12:49:50.266Z,48.66
2018-02-05T12:50:50.263Z,49.26
2018-02-05T12:51:50.275Z,48.83
2018-02-05T12:52:50.263Z,48.64
2018-02-05T12:53:50.274Z,48.88
2018-02-05T12:54:50.267Z,48.57
2018-02-05T12:55:50.267Z,49.14
2018-02-05T12:56:50.272Z,48.69
2018-02-05T12:57:50.271Z,48.97